Time;durP1;ratioP1;P1;durP2;ratioP2;P2;SDS_P1;SDS_P2;PMS_P1;PMS_P2;Temp;Humidity;BMP_temperature;BMP_pressure;BME280_temperature;BME280_humidity;BME280_pressure;Samples;Min_cycle;Max_cycle;Signal;HPM_P1;HPM_P2
2022/05/25 00:00:38;;;;;;;5.00;2.80;;;12.40;99.90;;;;;;4972785;28;20047;-37
2022/05/25 00:03:06;;;;;;;4.70;2.92;;;12.40;99.90;;;;;;4968582;28;20059;-36
2022/05/25 00:05:32;;;;;;;3.67;2.83;;;12.40;99.90;;;;;;4970751;28;20105;-36
2022/05/25 00:07:58;;;;;;;3.45;2.55;;;12.40;99.90;;;;;;4974528;28;20031;-37
2022/05/25 00:10:25;;;;;;;3.97;2.72;;;12.40;99.90;;;;;;4971935;28;20031;-53
2022/05/25 00:12:50;;;;;;;3.03;2.72;;;12.40;99.90;;;;;;4972792;28;20476;-35
2022/05/25 00:15:35;;;;;;;4.05;2.88;;;12.40;99.90;;;;;;4964136;28;20195;-37
2022/05/25 00:18:01;;;;;;;4.72;2.92;;;12.40;99.90;;;;;;4974428;28;20109;-38
2022/05/25 00:20:28;;;;;;;2.60;2.40;;;12.40;99.90;;;;;;4970748;28;20019;-36
2022/05/25 00:22:55;;;;;;;4.72;3.15;;;12.40;99.90;;;;;;4970103;28;20043;-37
2022/05/25 00:25:33;;;;;;;2.90;2.53;;;12.40;99.90;;;;;;4971665;28;20545;-36
2022/05/25 00:28:00;;;;;;;4.35;3.05;;;12.30;99.90;;;;;;4974330;28;20026;-36
2022/05/25 00:30:28;;;;;;;4.43;2.85;;;12.30;99.90;;;;;;4973429;28;20554;-38
2022/05/25 00:32:54;;;;;;;;;;;12.30;99.90;;;;;;4977670;28;20038;-38
2022/05/25 00:35:22;;;;;;;7.00;2.55;;;12.30;99.90;;;;;;4978338;28;19906;-36
2022/05/25 00:37:48;;;;;;;6.35;2.60;;;12.30;99.90;;;;;;4978399;28;20027;-37
2022/05/25 00:40:26;;;;;;;4.47;2.80;;;12.30;99.90;;;;;;4975996;28;20022;-37
2022/05/25 00:42:52;;;;;;;3.05;2.70;;;12.30;99.90;;;;;;4976675;28;20023;-36
2022/05/25 00:45:18;;;;;;;5.57;2.85;;;12.30;99.90;;;;;;4976940;28;20054;-37
2022/05/25 00:47:47;;;;;;;6.05;2.20;;;12.30;99.90;;;;;;4975960;28;20094;-36
2022/05/25 00:50:15;;;;;;;5.03;2.10;;;12.20;99.90;;;;;;4973594;28;20114;-37
2022/05/25 00:52:43;;;;;;;4.53;2.78;;;12.30;99.90;;;;;;4976113;28;20510;-35
2022/05/25 00:55:13;;;;;;;5.85;2.25;;;12.30;99.90;;;;;;4976739;28;20023;-36
2022/05/25 00:57:44;;;;;;;2.38;2.17;;;12.30;99.90;;;;;;4975983;28;20066;-37
2022/05/25 01:00:18;;;;;;;2.58;1.98;;;12.30;99.90;;;;;;4974313;28;20038;-37
2022/05/25 01:02:47;;;;;;;3.83;2.30;;;12.30;99.90;;;;;;4976334;28;20078;-36
2022/05/25 01:05:15;;;;;;;7.10;2.13;;;12.30;99.90;;;;;;4975807;28;20027;-36
2022/05/25 01:07:59;;;;;;;3.20;2.17;;;12.30;99.90;;;;;;4973383;28;20030;-37
2022/05/25 01:10:32;;;;;;;5.50;1.88;;;12.30;99.90;;;;;;4973635;28;20035;-34
2022/05/25 01:13:00;;;;;;;5.90;2.50;;;12.30;99.90;;;;;;4974960;28;20035;-36
2022/05/25 01:15:57;;;;;;;4.90;2.05;;;12.40;99.90;;;;;;4974877;28;20034;-36
2022/05/25 01:18:45;;;;;;;3.55;2.25;;;12.40;99.90;;;;;;4971441;28;20480;-35
2022/05/25 01:21:24;;;;;;;4.70;2.10;;;12.40;99.90;;;;;;4971916;28;20081;-38
2022/05/25 01:23:55;;;;;;;2.50;1.92;;;12.40;99.90;;;;;;4976341;28;20475;-64
2022/05/25 01:26:49;;;;;;;3.22;1.92;;;12.40;99.90;;;;;;4971418;28;20561;-41
2022/05/25 01:29:33;;;;;;;2.00;1.80;;;12.40;99.90;;;;;;4966797;28;20410;-37
2022/05/25 01:32:09;;;;;;;4.70;1.80;;;12.40;99.90;;;;;;4972925;28;20035;-36
2022/05/25 01:35:09;;;;;;;11.27;2.33;;;12.40;99.90;;;;;;4976054;28;20027;-36
2022/05/25 01:37:47;;;;;;;4.28;1.80;;;12.40;99.90;;;;;;4976214;28;20422;-37
2022/05/25 01:40:19;;;;;;;2.08;1.83;;;12.40;99.90;;;;;;4974104;28;20030;-36
2022/05/25 01:42:52;;;;;;;7.63;2.10;;;12.30;99.90;;;;;;4974967;28;20090;-38
2022/05/25 01:45:19;;;;;;;6.70;2.30;;;12.30;99.90;;;;;;4993836;28;20031;-38
2022/05/25 01:47:48;;;;;;;4.38;1.58;;;12.30;99.90;;;;;;4974966;28;20035;-36
2022/05/25 01:50:22;;;;;;;7.68;2.38;;;12.40;99.90;;;;;;4972875;28;20035;-36
2022/05/25 01:52:57;;;;;;;6.93;2.33;;;12.40;99.90;;;;;;4973840;28;20490;-36
2022/05/25 01:55:33;;;;;;;9.77;2.22;;;12.40;99.90;;;;;;4976021;28;20027;-36
2022/05/25 01:58:04;;;;;;;6.50;2.28;;;12.40;99.90;;;;;;4973935;28;20030;-37
2022/05/25 02:00:46;;;;;;;10.18;2.65;;;12.40;99.90;;;;;;4975417;28;20550;-36
2022/05/25 02:05:57;;;;;;;3.40;2.10;;;12.40;99.90;;;;;;4971294;28;20037;-42
2022/05/25 02:08:42;;;;;;;7.18;2.53;;;12.30;99.90;;;;;;4974807;28;20042;-35
2022/05/25 02:11:16;;;;;;;7.43;3.30;;;12.30;99.90;;;;;;4967855;28;20517;-36
2022/05/25 02:14:01;;;;;;;5.47;2.67;;;12.40;99.90;;;;;;4973992;28;20035;-37
2022/05/25 02:16:39;;;;;;;6.18;2.50;;;12.30;99.90;;;;;;4971156;28;20051;-36
2022/05/25 02:19:35;;;;;;;4.70;2.58;;;12.30;99.90;;;;;;4974119;28;20093;-38
2022/05/25 02:22:20;;;;;;;11.85;3.15;;;12.30;99.90;;;;;;4972488;28;20046;-50
2022/05/25 02:25:02;;;;;;;6.35;3.35;;;12.30;99.90;;;;;;4976697;28;20020;-38
2022/05/25 02:27:35;;;;;;;7.47;3.80;;;12.30;99.90;;;;;;4974411;28;20479;-36
2022/05/25 02:30:08;;;;;;;4.72;3.50;;;12.30;99.90;;;;;;4976359;28;20026;-36
2022/05/25 02:32:40;;;;;;;7.85;3.83;;;12.30;99.90;;;;;;4969114;28;20039;-36
2022/05/25 02:35:08;;;;;;;5.60;3.63;;;12.20;99.90;;;;;;4964048;28;20451;-37
2022/05/25 02:37:35;;;;;;;3.20;2.70;;;12.20;99.90;;;;;;4973010;28;20487;-36
2022/05/25 02:40:04;;;;;;;6.75;3.70;;;12.20;99.90;;;;;;4972386;28;20027;-38
2022/05/25 02:42:29;;;;;;;4.55;3.45;;;12.20;99.90;;;;;;4973394;28;20431;-36
2022/05/25 02:44:55;;;;;;;10.95;3.92;;;12.10;99.90;;;;;;4974837;28;20030;-36
2022/05/25 02:47:21;;;;;;;7.45;3.80;;;12.10;99.90;;;;;;4975806;28;20042;-37
2022/05/25 02:49:46;;;;;;;8.75;4.18;;;12.10;99.90;;;;;;4974156;28;20039;-37
2022/05/25 02:52:12;;;;;;;6.95;4.00;;;12.10;99.90;;;;;;4973234;28;20030;-38
2022/05/25 02:54:38;;;;;;;7.53;4.35;;;12.10;99.90;;;;;;4974935;28;20069;-36
2022/05/25 02:57:06;;;;;;;7.55;3.67;;;12.10;99.90;;;;;;4976071;28;20015;-36
2022/05/25 02:59:31;;;;;;;6.15;3.63;;;12.10;99.90;;;;;;4968712;28;20031;-36
2022/05/25 03:01:57;;;;;;;5.80;4.03;;;12.10;99.90;;;;;;4972632;28;20077;-36
2022/05/25 03:04:23;;;;;;;9.57;4.03;;;12.10;99.90;;;;;;4971830;28;20049;-37
2022/05/25 03:06:48;;;;;;;11.73;4.75;;;12.00;99.90;;;;;;4972840;28;20019;-36
2022/05/25 03:09:14;;;;;;;6.75;4.03;;;12.00;99.90;;;;;;4975287;28;20030;-36
2022/05/25 03:11:41;;;;;;;7.07;4.10;;;12.00;99.90;;;;;;4975512;28;20061;-36
2022/05/25 03:14:06;;;;;;;7.80;3.97;;;12.00;99.90;;;;;;4971779;28;20540;-36
2022/05/25 03:16:32;;;;;;;5.88;4.10;;;12.00;99.90;;;;;;4972447;28;20039;-36
2022/05/25 03:18:58;;;;;;;9.55;4.13;;;12.00;99.90;;;;;;4972328;28;20030;-38
2022/05/25 03:21:25;;;;;;;8.43;3.72;;;12.00;99.90;;;;;;4975269;28;20529;-47
2022/05/25 03:23:51;;;;;;;10.88;3.67;;;11.90;99.90;;;;;;4972612;28;20475;-41
2022/05/25 03:26:17;;;;;;;8.23;4.05;;;11.90;99.90;;;;;;4971556;28;20031;-38
2022/05/25 03:28:43;;;;;;;9.07;4.57;;;12.00;99.90;;;;;;4973190;28;20034;-44
2022/05/25 03:31:09;;;;;;;10.88;4.38;;;11.90;99.90;;;;;;4975159;28;20483;-37
2022/05/25 03:33:35;;;;;;;13.13;4.22;;;11.90;99.90;;;;;;4972265;28;20038;-36
2022/05/25 03:36:00;;;;;;;7.25;3.92;;;12.00;99.90;;;;;;4974664;28;20054;-36
2022/05/25 03:38:30;;;;;;;7.05;4.20;;;12.00;99.90;;;;;;4971757;28;20345;-36
2022/05/25 03:40:57;;;;;;;7.80;4.47;;;12.00;99.90;;;;;;4975143;28;20387;-37
2022/05/25 03:43:32;;;;;;;7.57;4.20;;;12.00;99.90;;;;;;4973582;28;20033;-38
2022/05/25 03:45:58;;;;;;;8.55;4.03;;;12.00;99.90;;;;;;4970561;28;20038;-36
2022/05/25 03:48:24;;;;;;;12.43;4.18;;;12.00;99.90;;;;;;4973284;28;20534;-38
2022/05/25 03:50:50;;;;;;;9.40;4.60;;;12.00;99.90;;;;;;4973555;28;20105;-37
2022/05/25 03:53:15;;;;;;;14.15;4.97;;;12.00;99.90;;;;;;4974714;28;20482;-37
2022/05/25 03:55:42;;;;;;;9.43;4.45;;;12.00;99.90;;;;;;4969982;28;20122;-36
2022/05/25 03:58:09;;;;;;;9.77;4.13;;;12.00;99.90;;;;;;4962287;28;20023;-36
2022/05/25 04:00:35;;;;;;;10.20;4.35;;;12.00;99.90;;;;;;4955381;28;20015;-36
2022/05/25 04:03:02;;;;;;;9.35;4.20;;;12.00;99.90;;;;;;4962577;28;20106;-36
2022/05/25 04:05:29;;;;;;;5.93;4.35;;;12.00;99.90;;;;;;4969181;28;20030;-36
2022/05/25 04:07:56;;;;;;;12.47;4.97;;;12.00;99.90;;;;;;4974653;28;20559;-38
2022/05/25 04:10:22;;;;;;;5.18;3.80;;;12.00;99.90;;;;;;4973800;28;20026;-57
2022/05/25 04:12:49;;;;;;;9.18;4.97;;;12.00;99.90;;;;;;4974671;28;20026;-38
2022/05/25 04:15:21;;;;;;;9.27;4.97;;;12.00;99.90;;;;;;4969606;28;20102;-36
2022/05/25 04:17:47;;;;;;;5.90;4.32;;;12.00;99.90;;;;;;4970817;28;20403;-36
2022/05/25 04:20:14;;;;;;;9.82;5.03;;;12.00;99.90;;;;;;4971787;28;20034;-36
2022/05/25 04:22:41;;;;;;;12.60;4.72;;;11.90;99.90;;;;;;4967770;28;20080;-36
2022/05/25 04:25:10;;;;;;;11.00;4.93;;;12.00;99.90;;;;;;4966231;28;20132;-38
2022/05/25 04:27:37;;;;;;;6.45;4.00;;;11.90;99.90;;;;;;4970800;28;20518;-38
2022/05/25 04:30:04;;;;;;;9.00;4.27;;;12.00;99.90;;;;;;4973172;28;20034;-47
2022/05/25 04:32:30;;;;;;;5.40;4.13;;;12.00;99.90;;;;;;4972094;28;20475;-58
2022/05/25 04:34:58;;;;;;;9.13;4.18;;;12.00;99.90;;;;;;4971174;28;20035;-35
2022/05/25 04:40:09;;;;;;;8.82;3.88;;;12.00;99.90;;;;;;4973710;28;20042;-50
2022/05/25 04:42:35;;;;;;;7.45;4.35;;;12.00;99.90;;;;;;4971882;28;20061;-36
2022/05/25 04:45:01;;;;;;;7.57;4.45;;;12.00;99.90;;;;;;4970478;28;20034;-36
2022/05/25 04:47:31;;;;;;;10.30;4.65;;;12.10;99.90;;;;;;4970334;28;20030;-36
2022/05/25 04:49:58;;;;;;;7.80;4.25;;;12.10;99.90;;;;;;4969500;28;20034;-32
2022/05/25 04:52:23;;;;;;;10.00;3.85;;;12.10;99.90;;;;;;4971453;28;20026;-37
2022/05/25 04:54:49;;;;;;;19.73;5.15;;;12.10;99.90;;;;;;4974093;28;20019;-36
2022/05/25 04:57:22;;;;;;;14.73;5.20;;;12.10;99.90;;;;;;4970723;28;20058;-37
2022/05/25 05:00:00;;;;;;;8.25;4.60;;;12.20;99.90;;;;;;4972867;28;20561;-31
2022/05/25 05:02:27;;;;;;;12.32;4.88;;;12.20;99.90;;;;;;4972053;28;20478;-37
2022/05/25 05:04:53;;;;;;;16.20;6.07;;;12.20;99.90;;;;;;4967849;28;20027;-37
2022/05/25 05:07:27;;;;;;;8.85;5.32;;;12.30;99.90;;;;;;4972059;28;20023;-38
2022/05/25 05:09:53;;;;;;;9.82;5.55;;;12.30;99.90;;;;;;4973467;28;20027;-37
2022/05/25 05:12:18;;;;;;;9.88;5.88;;;12.40;99.90;;;;;;4970372;28;20520;-40
2022/05/25 05:14:44;;;;;;;17.92;5.93;;;12.40;99.90;;;;;;4973237;28;20019;-39
2022/05/25 05:17:10;;;;;;;7.80;5.70;;;12.40;99.90;;;;;;4975333;28;20050;-37
2022/05/25 05:19:36;;;;;;;8.75;5.28;;;12.50;99.90;;;;;;4975405;28;20382;-36
2022/05/25 05:22:01;;;;;;;9.27;5.47;;;12.60;99.90;;;;;;4974920;28;20034;-32
2022/05/25 05:24:29;;;;;;;7.70;5.57;;;12.60;99.90;;;;;;4974554;28;20018;-36
2022/05/25 05:26:56;;;;;;;12.43;6.55;;;12.70;99.90;;;;;;4973938;28;20019;-40
2022/05/25 05:29:23;;;;;;;14.90;6.65;;;12.70;99.90;;;;;;4977280;28;20042;-37
2022/05/25 05:31:49;;;;;;;7.05;4.30;;;12.70;99.90;;;;;;4977640;28;20026;-36
2022/05/25 05:34:14;;;;;;;12.65;6.22;;;12.80;99.90;;;;;;4976178;28;20479;-36
2022/05/25 05:36:45;;;;;;;14.32;6.18;;;12.90;99.90;;;;;;4972123;28;20038;-36
2022/05/25 05:39:13;;;;;;;9.35;5.60;;;12.90;99.90;;;;;;4973562;28;20042;-36
2022/05/25 05:41:46;;;;;;;9.27;6.18;;;13.00;99.90;;;;;;4969588;28;20022;-35
2022/05/25 05:44:16;;;;;;;13.20;5.85;;;13.10;99.90;;;;;;4969679;28;20034;-37
2022/05/25 05:46:43;;;;;;;11.77;6.18;;;13.20;99.90;;;;;;4970372;28;20031;-36
2022/05/25 05:49:10;;;;;;;16.83;6.00;;;13.30;99.90;;;;;;4973096;28;20038;-37
2022/05/25 05:51:36;;;;;;;14.60;6.00;;;13.40;99.90;;;;;;4967379;28;20097;-38
2022/05/25 05:54:03;;;;;;;9.13;6.03;;;13.40;99.90;;;;;;4976919;28;20038;-57
2022/05/25 05:56:29;;;;;;;10.30;6.05;;;13.40;99.90;;;;;;4974607;28;20045;-36
2022/05/25 05:58:55;;;;;;;9.45;6.07;;;13.50;99.90;;;;;;4974347;28;20078;-37
2022/05/25 06:01:21;;;;;;;11.65;5.38;;;13.60;99.90;;;;;;4972991;28;20026;-38
2022/05/25 06:03:46;;;;;;;10.68;6.68;;;13.70;99.90;;;;;;4970781;28;20065;-38
2022/05/25 06:06:12;;;;;;;11.85;5.25;;;13.90;99.90;;;;;;4963527;28;20559;-37
2022/05/25 06:08:37;;;;;;;12.25;5.38;;;14.10;99.90;;;;;;4970430;28;20122;-36
2022/05/25 06:11:03;;;;;;;15.05;5.90;;;14.30;99.90;;;;;;4976223;28;20035;-36
2022/05/25 06:13:29;;;;;;;12.63;5.85;;;14.40;99.90;;;;;;4975733;28;20031;-36
2022/05/25 06:21:24;;;;;;;8.95;5.25;;;14.80;99.90;;;;;;4970974;28;20034;-38
2022/05/25 06:23:50;;;;;;;15.13;5.60;;;15.70;99.90;;;;;;4963564;28;20041;-37
2022/05/25 06:26:17;;;;;;;14.93;5.30;;;16.20;99.90;;;;;;4964977;28;20041;-37
2022/05/25 06:28:44;;;;;;;8.50;5.03;;;16.20;99.90;;;;;;4967747;28;20099;-44
2022/05/25 06:31:10;;;;;;;9.43;5.55;;;17.00;99.90;;;;;;4956857;29;20074;-35
2022/05/25 06:33:37;;;;;;;5.13;4.30;;;18.80;99.90;;;;;;4970688;28;20050;-37
2022/05/25 06:36:20;;;;;;;14.07;6.63;;;19.50;99.90;;;;;;4973032;28;20073;-37
2022/05/25 06:38:46;;;;;;;12.65;5.47;;;19.10;99.90;;;;;;4972524;28;20035;-34
2022/05/25 06:41:13;;;;;;;10.48;5.53;;;18.30;99.90;;;;;;4970920;28;20021;-36
2022/05/25 06:43:38;;;;;;;10.40;5.10;;;17.30;99.90;;;;;;4973644;28;20027;-34
2022/05/25 06:46:07;;;;;;;11.50;5.95;;;16.90;99.90;;;;;;4984735;28;20423;-36
2022/05/25 06:48:33;;;;;;;8.48;5.75;;;16.70;99.90;;;;;;4973757;28;20391;-36
2022/05/25 06:51:12;;;;;;;15.18;6.35;;;16.50;99.90;;;;;;4972509;28;20027;-37
2022/05/25 06:53:38;;;;;;;10.25;6.25;;;16.30;99.90;;;;;;4967312;28;20035;-36
2022/05/25 06:56:05;;;;;;;9.48;6.65;;;16.20;99.90;;;;;;4975081;28;20059;-36
2022/05/25 06:58:30;;;;;;;12.38;7.20;;;16.10;99.90;;;;;;4971927;28;20379;-36
2022/05/25 07:00:56;;;;;;;13.55;7.05;;;15.80;99.90;;;;;;4973450;28;20023;-38
2022/05/25 07:03:22;;;;;;;13.00;7.22;;;15.60;99.90;;;;;;4970501;28;20034;-36
2022/05/25 07:05:47;;;;;;;12.52;8.60;;;15.40;99.90;;;;;;4968878;28;20049;-45
2022/05/25 07:08:17;;;;;;;18.00;8.77;;;15.20;99.90;;;;;;4973782;28;20547;-38
2022/05/25 07:10:45;;;;;;;15.00;8.20;;;15.00;99.90;;;;;;4974832;28;20487;-37
2022/05/25 07:13:12;;;;;;;14.15;8.00;;;14.90;99.90;;;;;;4969914;28;20031;-38
2022/05/25 07:15:38;;;;;;;13.87;8.37;;;14.90;99.90;;;;;;4974650;28;20050;-47
2022/05/25 07:18:03;;;;;;;18.75;9.15;;;14.90;99.90;;;;;;4974319;28;20322;-36
2022/05/25 07:20:29;;;;;;;19.52;9.18;;;15.30;99.90;;;;;;4971550;28;20018;-35
2022/05/25 07:22:55;;;;;;;13.68;8.35;;;15.40;99.90;;;;;;4988413;28;20069;-38
2022/05/25 07:25:21;;;;;;;18.88;10.15;;;15.30;99.90;;;;;;4975441;28;20113;-38
2022/05/25 07:27:47;;;;;;;19.50;10.18;;;15.30;99.90;;;;;;4974946;28;20025;-37
2022/05/25 07:30:13;;;;;;;15.30;8.38;;;15.50;99.90;;;;;;4961369;28;20023;-37
2022/05/25 07:32:39;;;;;;;12.98;8.82;;;15.60;99.90;;;;;;4960104;28;20530;-37
2022/05/25 07:35:07;;;;;;;18.20;9.15;;;15.70;99.90;;;;;;4970938;28;20495;-38
2022/05/25 07:37:37;;;;;;;;;;;15.90;99.90;;;;;;4965824;28;20546;-36
2022/05/25 07:40:14;;;;;;;18.75;9.30;;;15.80;99.90;;;;;;4973554;28;20354;-36
2022/05/25 07:42:44;;;;;;;19.67;10.02;;;15.50;99.90;;;;;;4979207;28;20507;-38
2022/05/25 07:45:10;;;;;;;20.95;10.02;;;15.40;99.90;;;;;;4974782;28;20034;-37
2022/05/25 07:47:35;;;;;;;16.73;9.70;;;15.40;99.90;;;;;;4968080;28;20399;-37
2022/05/25 07:50:03;;;;;;;23.48;10.27;;;15.40;99.90;;;;;;4974173;28;20023;-36
2022/05/25 07:52:32;;;;;;;17.70;8.90;;;15.60;99.90;;;;;;4964675;28;20035;-38
2022/05/25 07:54:58;;;;;;;16.55;8.82;;;15.70;99.90;;;;;;4969122;28;20054;-36
2022/05/25 07:57:24;;;;;;;19.88;11.32;;;15.90;99.90;;;;;;4972025;28;20574;-38
2022/05/25 07:59:50;;;;;;;13.93;7.88;;;15.90;99.90;;;;;;4967613;28;20023;-51
2022/05/25 08:08:03;;;;;;;20.80;9.98;;;15.60;99.90;;;;;;4973067;28;20042;-36
2022/05/25 08:10:29;;;;;;;19.23;9.88;;;15.50;99.90;;;;;;4974307;28;20491;-36
2022/05/25 08:12:57;;;;;;;15.70;9.65;;;15.60;99.90;;;;;;4967491;28;20106;-38
2022/05/25 08:15:24;;;;;;;18.13;9.15;;;15.60;99.90;;;;;;4970704;28;20034;-38
2022/05/25 08:17:50;;;;;;;23.65;9.90;;;15.70;99.90;;;;;;4958243;28;20074;-38
2022/05/25 08:20:18;;;;;;;17.70;9.63;;;15.80;99.90;;;;;;4965087;28;20018;-36
2022/05/25 08:22:44;;;;;;;;;;;15.90;99.90;;;;;;4969141;28;20022;-37
2022/05/25 08:25:12;;;;;;;17.05;8.32;;;15.90;99.90;;;;;;4969347;28;19935;-36
2022/05/25 08:27:39;;;;;;;13.15;7.57;;;15.90;99.90;;;;;;4969751;28;20034;-36
2022/05/25 08:30:07;;;;;;;14.50;9.10;;;16.00;99.90;;;;;;4966260;28;20514;-36
2022/05/25 08:32:33;;;;;;;20.13;8.65;;;16.20;99.90;;;;;;4966825;28;20035;-37
2022/05/25 08:34:58;;;;;;;12.85;8.07;;;16.50;99.90;;;;;;4972478;28;20086;-42
2022/05/25 08:37:24;;;;;;;18.75;6.45;;;17.00;99.90;;;;;;4968428;28;20101;-37
2022/05/25 08:39:49;;;;;;;19.48;7.78;;;17.60;99.90;;;;;;4970254;28;20038;-37
2022/05/25 08:42:20;;;;;;;12.05;6.97;;;18.20;99.90;;;;;;4971135;28;20054;-38
2022/05/25 08:44:48;;;;;;;9.30;7.10;;;18.40;99.90;;;;;;4967904;28;20027;-36
2022/05/25 08:47:14;;;;;;;15.43;7.05;;;18.20;99.90;;;;;;4971952;28;20475;-52
2022/05/25 08:49:43;;;;;;;12.63;6.18;;;18.10;99.90;;;;;;4967414;28;20025;-37
2022/05/25 08:52:32;;;;;;;9.35;6.88;;;18.30;99.90;;;;;;4975058;28;20027;-36
2022/05/25 08:55:00;;;;;;;9.50;7.15;;;18.80;99.90;;;;;;4973529;28;20475;-37
2022/05/25 08:57:48;;;;;;;10.95;5.25;;;19.40;99.90;;;;;;4970152;28;20023;-48
2022/05/25 09:00:17;;;;;;;7.13;4.95;;;19.80;99.90;;;;;;4968892;28;20118;-37
2022/05/25 09:03:06;;;;;;;8.30;5.63;;;19.90;99.90;;;;;;4963916;28;20514;-36
2022/05/25 09:05:40;;;;;;;15.82;5.88;;;19.80;99.90;;;;;;4973787;28;20027;-36
2022/05/25 09:08:24;;;;;;;11.20;6.18;;;19.40;99.90;;;;;;4967548;28;20034;-32
2022/05/25 09:11:02;;;;;;;8.70;5.85;;;19.20;99.90;;;;;;4968596;28;20507;-37
2022/05/25 09:13:50;;;;;;;8.35;4.97;;;19.20;99.90;;;;;;4968195;28;20033;-36
2022/05/25 09:16:18;;;;;;;6.80;4.63;;;19.30;99.90;;;;;;4967514;28;20066;-37
2022/05/25 09:18:51;;;;;;;4.15;3.80;;;19.20;99.90;;;;;;4967996;28;20057;-37
2022/05/25 09:21:21;;;;;;;7.28;3.33;;;19.00;99.90;;;;;;4968704;28;20038;-38
2022/05/25 09:23:51;;;;;;;5.40;3.45;;;18.80;99.90;;;;;;4968406;28;20390;-36
2022/05/25 09:26:17;;;;;;;9.35;3.83;;;18.50;99.90;;;;;;4967655;28;20027;-33
2022/05/25 09:28:48;;;;;;;3.85;2.17;;;18.50;99.90;;;;;;4966982;28;20033;-37
2022/05/25 09:31:21;;;;;;;3.05;2.17;;;18.70;99.90;;;;;;4966571;28;20026;-36
2022/05/25 09:33:57;;;;;;;4.05;2.65;;;19.10;99.90;;;;;;4966945;28;20566;-36
2022/05/25 09:36:30;;;;;;;7.60;2.20;;;19.30;99.90;;;;;;4966408;28;20077;-37
2022/05/25 09:39:04;;;;;;;12.13;1.95;;;19.20;99.90;;;;;;4964211;28;20039;-36
2022/05/25 09:41:31;;;;;;;3.90;2.47;;;18.90;99.90;;;;;;4966304;28;20438;-37
2022/05/25 09:43:59;;;;;;;4.32;0.77;;;18.90;99.90;;;;;;4970790;28;20591;-36
2022/05/25 09:46:29;;;;;;;6.53;1.45;;;19.00;99.90;;;;;;4965470;28;20031;-35
2022/05/25 09:49:08;;;;;;;0.85;0.60;;;18.90;99.90;;;;;;4965213;28;20039;-37
2022/05/25 09:51:39;;;;;;;2.85;0.70;;;19.00;99.90;;;;;;4967656;28;20491;-35
2022/05/25 09:54:14;;;;;;;1.95;0.60;;;19.30;99.90;;;;;;4967350;28;20070;-36
2022/05/25 09:56:45;;;;;;;2.75;0.77;;;19.90;99.90;;;;;;4966668;28;20031;-37
2022/05/25 09:59:20;;;;;;;2.75;0.73;;;20.40;99.90;;;;;;4966010;28;20015;-37
2022/05/25 10:01:48;;;;;;;5.20;1.58;;;20.60;99.90;;;;;;4967057;28;20085;-36
2022/05/25 10:05:01;;;;;;;5.15;0.75;;;20.70;99.80;;;;;;4966779;28;20054;-38
2022/05/25 10:07:36;;;;;;;1.63;1.13;;;20.60;99.90;;;;;;4966405;28;20043;-38
2022/05/25 10:10:05;;;;;;;1.80;0.73;;;20.40;99.80;;;;;;4966422;28;20584;-35
2022/05/25 10:12:34;;;;;;;0.75;0.63;;;20.40;99.90;;;;;;4967963;28;20027;-37
2022/05/25 10:15:28;;;;;;;3.30;0.85;;;20.40;99.90;;;;;;4967496;28;20554;-31
2022/05/25 10:17:54;;;;;;;1.75;0.60;;;20.40;99.90;;;;;;4967058;28;20138;-37
2022/05/25 10:20:24;;;;;;;3.10;0.65;;;20.40;99.70;;;;;;4964463;28;20603;-36
2022/05/25 10:23:10;;;;;;;2.28;0.65;;;20.40;99.20;;;;;;4965576;28;20490;-37
2022/05/25 10:25:43;;;;;;;0.45;0.45;;;20.10;99.90;;;;;;4966673;28;20062;-37
2022/05/25 10:28:21;;;;;;;4.65;0.70;;;19.70;99.90;;;;;;4966023;28;20058;-36
2022/05/25 10:36:47;;;;;;;2.53;0.63;;;19.20;99.90;;;;;;4967243;28;20062;-37
2022/05/25 10:39:31;;;;;;;2.67;0.60;;;19.00;99.90;;;;;;4965878;28;20074;-31
2022/05/25 10:42:23;;;;;;;3.22;0.77;;;18.70;99.90;;;;;;4967303;28;20439;-28
2022/05/25 10:45:13;;;;;;;3.03;0.70;;;18.70;99.90;;;;;;4971165;28;20023;-31
2022/05/25 10:47:51;;;;;;;1.80;0.70;;;19.00;99.90;;;;;;4973602;28;20030;-28
2022/05/25 10:50:21;;;;;;;1.45;0.43;;;19.10;99.90;;;;;;4972035;28;20550;-34
2022/05/25 10:52:59;;;;;;;2.03;0.50;;;19.30;99.90;;;;;;4978621;28;20440;-31
2022/05/25 10:55:35;;;;;;;1.77;0.57;;;19.20;99.90;;;;;;4972669;28;20494;-32
2022/05/25 10:58:17;;;;;;;1.98;0.80;;;19.20;99.90;;;;;;4969621;28;20065;-30
2022/05/25 11:00:56;;;;;;;4.88;0.65;;;18.90;99.90;;;;;;4973518;28;20114;-33
2022/05/25 11:03:59;;;;;;;2.83;0.50;;;18.50;99.90;;;;;;4972250;28;20027;-27
2022/05/25 11:06:59;;;;;;;2.30;1.02;;;18.30;99.90;;;;;;4977340;28;20137;-32
2022/05/25 11:09:43;;;;;;;2.15;0.50;;;18.70;99.90;;;;;;4984428;28;20547;-32
2022/05/25 11:12:47;;;;;;;0.55;0.35;;;19.10;99.90;;;;;;4985426;28;20127;-36
2022/05/25 11:15:27;;;;;;;2.88;0.60;;;19.30;99.90;;;;;;4951709;28;20094;-37
2022/05/25 11:18:22;;;;;;;2.08;0.82;;;19.50;99.60;;;;;;4965833;28;20047;-29
2022/05/25 11:21:02;;;;;;;5.78;0.50;;;19.70;99.40;;;;;;4966850;28;20546;-35
2022/05/25 11:23:36;;;;;;;0.60;0.45;;;19.60;99.40;;;;;;4965680;28;20487;-38
2022/05/25 11:26:30;;;;;;;1.17;0.40;;;19.30;99.40;;;;;;4965657;28;20491;-32
2022/05/25 11:29:22;;;;;;;0.88;0.50;;;19.40;99.60;;;;;;4966227;28;20043;-31
2022/05/25 11:31:56;;;;;;;2.85;1.20;;;19.60;98.30;;;;;;4965517;28;20043;-35
2022/05/25 11:34:48;;;;;;;0.93;0.20;;;19.80;98.30;;;;;;4965553;28;20038;-28
2022/05/25 11:37:25;;;;;;;1.17;0.30;;;20.10;98.00;;;;;;4957535;28;20503;-32
2022/05/25 11:40:08;;;;;;;0.30;0.30;;;19.90;98.40;;;;;;4966201;28;20023;-32
2022/05/25 11:42:36;;;;;;;4.10;0.60;;;19.60;99.00;;;;;;4964514;28;20126;-33
2022/05/25 11:45:21;;;;;;;0.43;0.30;;;19.80;99.10;;;;;;4964652;28;20059;-33
2022/05/25 11:48:01;;;;;;;3.92;0.65;;;20.20;98.20;;;;;;4973420;28;20101;-31
2022/05/25 11:50:39;;;;;;;0.52;0.40;;;20.40;97.40;;;;;;4969477;28;20499;-30
2022/05/25 11:53:35;;;;;;;3.13;0.40;;;20.40;97.40;;;;;;4971817;28;20483;-33
2022/05/25 11:56:37;;;;;;;3.17;0.35;;;20.40;97.40;;;;;;4973530;28;20109;-34
2022/05/25 11:59:48;;;;;;;3.13;1.25;;;20.60;97.20;;;;;;4971473;28;20442;-33
2022/05/25 12:02:32;;;;;;;2.88;0.20;;;20.40;97.10;;;;;;4973115;28;20477;-30
2022/05/25 12:05:22;;;;;;;1.20;0.70;;;20.50;97.00;;;;;;4968124;28;20088;-35
2022/05/25 12:07:55;;;;;;;1.60;0.50;;;20.60;97.60;;;;;;4971840;28;20030;-38
2022/05/25 12:10:48;;;;;;;2.90;0.47;;;20.20;97.30;;;;;;4955315;29;20539;-34
2022/05/25 12:13:33;;;;;;;1.17;0.38;;;19.90;97.40;;;;;;4966781;28;20034;-34
2022/05/25 12:16:03;;;;;;;2.40;0.50;;;19.60;98.10;;;;;;4962949;28;20027;-34
2022/05/25 12:18:32;;;;;;;1.45;0.60;;;19.20;98.60;;;;;;4972542;28;20023;-31
2022/05/25 12:21:10;;;;;;;1.88;0.63;;;19.00;98.90;;;;;;4976425;28;20034;-34
2022/05/25 12:23:40;;;;;;;1.83;0.47;;;18.80;99.20;;;;;;4972745;28;20030;-34
2022/05/25 12:26:14;;;;;;;2.47;0.50;;;18.60;99.00;;;;;;4973694;28;20043;-32
2022/05/25 12:28:42;;;;;;;1.67;0.57;;;18.30;99.90;;;;;;4973955;28;20081;-33
2022/05/25 12:31:12;;;;;;;3.72;0.85;;;18.40;99.90;;;;;;4971161;28;20479;-34
2022/05/25 12:33:38;;;;;;;4.35;0.43;;;18.70;99.90;;;;;;4972864;28;20510;-39
2022/05/25 12:36:08;;;;;;;4.18;0.80;;;19.10;99.90;;;;;;4966466;28;20019;-32
2022/05/25 12:38:35;;;;;;;10.18;0.90;;;19.40;99.50;;;;;;4970620;28;20030;-30
2022/05/25 12:41:32;;;;;;;2.65;1.33;;;19.40;99.50;;;;;;4973690;28;20175;-28
2022/05/25 12:50:02;;;;;;;1.75;1.00;;;19.60;99.90;;;;;;4973241;28;20069;-28
2022/05/25 12:52:27;;;;;;;1.83;0.77;;;19.50;99.70;;;;;;4973413;28;20031;-36
2022/05/25 12:55:00;;;;;;;6.88;1.05;;;19.70;99.90;;;;;;4972660;28;20703;-34
2022/05/25 12:57:39;;;;;;;1.95;0.80;;;19.80;99.80;;;;;;4985205;28;20027;-38
2022/05/25 13:00:36;;;;;;;4.32;1.00;;;19.90;99.90;;;;;;4970492;28;20027;-36
2022/05/25 13:03:33;;;;;;;4.13;0.90;;;19.80;99.90;;;;;;4971043;28;20062;-36
2022/05/25 13:06:00;;;;;;;1.17;0.60;;;19.60;99.90;;;;;;4980707;28;20026;-36
2022/05/25 13:08:47;;;;;;;4.97;1.10;;;19.50;99.90;;;;;;4980440;28;20387;-37
2022/05/25 13:11:31;;;;;;;3.42;1.85;;;19.30;99.90;;;;;;4963359;28;20479;-38
2022/05/25 13:14:20;;;;;;;8.90;1.20;;;19.30;99.90;;;;;;4958592;28;20139;-37
2022/05/25 13:16:46;;;;;;;11.32;1.13;;;19.10;99.90;;;;;;4956222;28;20063;-35
2022/05/25 13:19:18;;;;;;;4.68;1.15;;;19.10;99.90;;;;;;4964490;28;20038;-37
2022/05/25 13:21:52;;;;;;;2.85;1.00;;;19.00;99.90;;;;;;4975654;28;20081;-32
2022/05/25 13:24:39;;;;;;;1.15;0.82;;;19.00;99.90;;;;;;4969914;28;20475;-36
2022/05/25 13:27:24;;;;;;;5.75;1.10;;;19.10;99.90;;;;;;4971521;28;20620;-37
2022/05/25 13:30:02;;;;;;;7.07;1.38;;;19.10;99.90;;;;;;4969857;28;20065;-36
2022/05/25 13:33:05;;;;;;;4.40;1.00;;;19.00;99.90;;;;;;4965734;28;20407;-37
2022/05/25 13:36:05;;;;;;;1.20;0.85;;;19.00;99.90;;;;;;4966114;28;20015;-47
2022/05/25 13:38:49;;;;;;;1.15;0.60;;;18.80;99.90;;;;;;4968919;28;20030;-35
2022/05/25 13:41:28;;;;;;;3.78;1.15;;;18.70;99.90;;;;;;4969237;28;20495;-36